Schillplate — ZDJJ8 — position and weather

sailwx.info

Track history (hours):
 
Tides and Currents Weather Stations Pressure Air Temp Water Temp Dewpoint Dewpoint Depression Visibility Wind Speed Wind Dir Waves Ship Positions

Schillplate

Last reported at 2014-Dec-20 19:33 UTC. Time now 2014-Dec-21 04:43 UTC.
Position N 47°16' W 005°57'.

Length 86 m; draft 4 m.

Type: Cargo ship. MMSI: 236111603.

Date/timePositionNaut miles runAvg speedWind from/ knotsBaromVisibWave heightAir tempDewpointWater temp
2014-Dec-20 19:33N 47°16' W 005°57'1312.5
2014-Dec-20 18:33N 47°29' W 005°57'2512.7
2014-Dec-20 16:33N 47°54' W 005°57'239 9.1
2014-Dec-19 14:22N 50°31' W 001°19'1011.1
2014-Dec-19 13:26N 50°36' W 001°05'7 7.8
2014-Dec-19 12:33N 50°43' W 001°03'0 0.1
2014-Dec-19 11:33N 50°43' W 001°03'0 0.0
2014-Dec-19 10:33N 50°43' W 001°03'0 0.0
2014-Dec-19 09:33N 50°43' W 001°03'0 0.0
2014-Dec-19 08:33N 50°43' W 001°03'0 0.1
2014-Dec-19 07:33N 50°43' W 001°03'0 0.0
2014-Dec-19 06:33N 50°43' W 001°03'0 0.0
2014-Dec-19 05:33N 50°43' W 001°03'0 0.0
2014-Dec-19 04:30N 50°43' W 001°03'0 0.0
2014-Dec-19 03:27N 50°43' W 001°03'0 0.0
2014-Dec-19 02:27N 50°43' W 001°03'0 0.0
2014-Dec-19 01:33N 50°43' W 001°03'0 0.0
2014-Dec-19 00:33N 50°43' W 001°03'0 0.0
2014-Dec-18 23:33N 50°43' W 001°03'0 0.0
2014-Dec-18 22:33N 50°43' W 001°03'0 0.0
2014-Dec-18 21:33N 50°43' W 001°03'0 0.0
2014-Dec-18 20:33N 50°43' W 001°03'0 0.0
2014-Dec-18 19:33N 50°43' W 001°03'0 0.0
2014-Dec-18 18:33N 50°43' W 001°03'0 0.0
2014-Dec-18 17:33N 50°43' W 001°03'0 0.0
2014-Dec-18 16:33N 50°43' W 001°03'0 0.0
2014-Dec-18 15:33N 50°43' W 001°03'0 0.0
2014-Dec-18 14:33N 50°43' W 001°03'3 2.6
2014-Dec-18 13:33N 50°41' W 001°00'1110.6
2014-Dec-18 12:33N 50°32' W 001°09'56 3.7
2014-Dec-17 21:33N 50°35' E 000°18'10 9.9
2014-Dec-17 20:33N 50°38' E 000°33'10 9.9
2014-Dec-17 19:34N 50°44' E 000°47'11 9.6
2014-Dec-17 18:25N 50°50' E 001°00'1010.4
2014-Dec-17 17:26N 50°57' E 001°13'1011.3
2014-Dec-17 16:33N 51°03' E 001°25'1212.0
2014-Dec-17 15:34N 51°11' E 001°40'1212.0
2014-Dec-17 14:34N 51°21' E 001°50'1111.2
2014-Dec-17 13:33N 51°30' E 002°00'1110.9
2014-Dec-17 12:34N 51°38' E 002°12'1210.2
2014-Dec-17 11:22N 51°47' E 002°25'33 7.7
2014-Dec-17 07:05N 52°02' E 003°13'3 6.2
2014-Dec-17 06:32N 52°03' E 003°18'8 7.5
2014-Dec-17 05:32N 52°03' E 003°31'10 9.9
2014-Dec-17 04:33N 52°03' E 003°46'1010.2
2014-Dec-17 03:34N 51°60' E 004°02'1413.8
2014-Dec-17 02:33N 51°54' E 004°22'8 7.6
2014-Dec-17 01:33N 51°54' E 004°35'2 2.3
2014-Dec-17 00:32N 51°53' E 004°37'0 0.0
2014-Dec-16 23:32N 51°53' E 004°37'0 0.0
2014-Dec-16 22:32N 51°53' E 004°37'0 0.0
2014-Dec-16 21:32N 51°53' E 004°37'0 0.0
2014-Dec-16 20:32N 51°53' E 004°37'0 0.0
2014-Dec-16 19:32N 51°53' E 004°37'0 0.0
2014-Dec-16 18:26N 51°53' E 004°37'0 0.0
2014-Dec-16 17:32N 51°53' E 004°37'0 0.0
2014-Dec-16 16:32N 51°53' E 004°37'0 0.0
2014-Dec-16 15:29N 51°53' E 004°37'0 0.0
2014-Dec-16 14:29N 51°53' E 004°37'0 0.0
2014-Dec-16 13:29N 51°53' E 004°37'0 0.0
2014-Dec-16 12:32N 51°53' E 004°37'1 0.8
2014-Dec-16 11:33N 51°53' E 004°37'4 3.5
2014-Dec-16 10:33N 51°54' E 004°32'2 1.7
2014-Dec-16 09:34N 51°54' E 004°29'5 5.0
2014-Dec-16 08:33N 51°54' E 004°21'8 7.6
2014-Dec-16 07:34N 51°57' E 004°10'7 7.2
2014-Dec-16 06:33N 51°60' E 003°59'7 6.6
2014-Dec-16 05:34N 51°60' E 003°48'3 1.6
2014-Dec-16 03:32N 51°57' E 003°45'0 0.0
2014-Dec-16 02:32N 51°57' E 003°45'0 0.0
2014-Dec-15 23:20N 51°57' E 003°45'0 0.5
2014-Dec-15 22:34N 51°57' E 003°45'1010.5
2014-Dec-15 21:34N 51°55' E 003°28'1211.7
2014-Dec-15 20:33N 51°46' E 003°16'10 9.9
2014-Dec-15 19:31N 51°37' E 003°22'1111.4
2014-Dec-15 18:33N 51°27' E 003°31'9 8.7
2014-Dec-15 17:33N 51°23' E 003°43'5 4.8
2014-Dec-15 16:33N 51°20' E 003°49'4 4.1
2014-Dec-15 15:33N 51°16' E 003°50'0 0.0
2014-Dec-15 14:30N 51°16' E 003°50'0 0.0
2014-Dec-15 13:30N 51°16' E 003°50'0 0.0
2014-Dec-15 12:33N 51°16' E 003°50'0 0.0
2014-Dec-15 11:33N 51°16' E 003°50'0 0.0
2014-Dec-15 10:33N 51°16' E 003°50'0 0.0
2014-Dec-15 09:27N 51°16' E 003°50'0 0.0
2014-Dec-15 08:30N 51°16' E 003°50'0 0.0
2014-Dec-15 07:30N 51°16' E 003°50'0 0.0
2014-Dec-15 06:30N 51°16' E 003°50'0 0.0
2014-Dec-15 05:33N 51°16' E 003°50'0 0.0
2014-Dec-15 04:33N 51°16' E 003°50'0 0.0
2014-Dec-15 03:33N 51°16' E 003°50'0 0.0
2014-Dec-15 02:33N 51°16' E 003°50'0 0.0
2014-Dec-15 01:33N 51°16' E 003°50'0 0.0
2014-Dec-15 00:27N 51°16' E 003°50'0 0.0
2014-Dec-14 23:33N 51°16' E 003°50'0 0.0
2014-Dec-14 22:30N 51°16' E 003°50'0 0.0
2014-Dec-14 21:34N 51°16' E 003°50'0 0.0
2014-Dec-14 20:33N 51°16' E 003°50'1 0.9
2014-Dec-14 19:34N 51°17' E 003°50'5 4.6
2014-Dec-14 18:33N 51°21' E 003°48'1211.7
2014-Dec-14 17:33N 51°25' E 003°30'1413.7
2014-Dec-14 16:30N 51°23' E 003°08'1213.1
2014-Dec-14 15:33N 51°22' E 002°48'6 5.9
2014-Dec-14 14:33N 51°22' E 002°38'5 4.9
2014-Dec-14 13:34N 51°22' E 002°30'6 6.1
2014-Dec-14 12:33N 51°19' E 002°21'10 9.6
2014-Dec-14 11:33N 51°15' E 002°08'1010.0
2014-Dec-14 10:34N 51°09' E 001°55'1110.6
2014-Dec-14 09:34N 51°03' E 001°42'1211.6
2014-Dec-14 08:33N 50°54' E 001°29'28911.1
2014-Dec-13 06:33N 48°41' W 005°07'1211.6
2014-Dec-13 05:33N 48°33' W 005°20'1010.0
2014-Dec-13 04:33N 48°23' W 005°22'1110.9
2014-Dec-13 03:33N 48°13' W 005°18'1110.7
2014-Dec-13 02:33N 48°02' W 005°14'1010.1
2014-Dec-13 01:33N 47°52' W 005°11'9 8.8
2014-Dec-13 00:33N 47°47' W 005°01'1010.1
2014-Dec-12 23:33N 47°44' W 004°46'2010.2
2014-Dec-12 21:33N 47°38' W 004°17'10 9.9
2014-Dec-12 20:33N 47°35' W 004°03'20 9.7
2014-Dec-12 18:30N 47°29' W 003°35'9 9.5
2014-Dec-12 17:33N 47°26' W 003°22'10 9.3
2014-Dec-12 16:30N 47°23' W 003°09'4 1.9
2014-Dec-12 14:31N 47°20' W 003°05'0 0.0
2014-Dec-12 11:19N 47°20' W 003°05'0 0.0
2014-Dec-12 06:16N 47°20' W 003°05'0 0.0
2014-Dec-12 02:08N 47°20' W 003°05'0 0.0
2014-Dec-12 01:26N 47°20' W 003°05'3 3.3
2014-Dec-12 00:33N 47°19' W 003°01'14 9.7
2014-Dec-11 23:04N 47°13' W 002°42'  
Track history (hours):
 
Tides and Currents Weather Stations Pressure Air Temp Water Temp Dewpoint Dewpoint Depression Visibility Wind Speed Wind Dir Waves Ship Positions

Schillplate

Last reported at 2014-Dec-20 19:33 UTC. Time now 2014-Dec-21 04:43 UTC.
Position N 47°16' W 005°57'.

Length 86 m; draft 4 m.

Type: Cargo ship. MMSI: 236111603.

Date/timePositionNaut miles runAvg speedWind from/ knotsBaromVisibWave heightAir tempDewpointWater temp
2014-Dec-20 19:33N 47°16' W 005°57'1312.5
2014-Dec-20 18:33N 47°29' W 005°57'2512.7
2014-Dec-20 16:33N 47°54' W 005°57'239 9.1
2014-Dec-19 14:22N 50°31' W 001°19'1011.1
2014-Dec-19 13:26N 50°36' W 001°05'7 7.8
2014-Dec-19 12:33N 50°43' W 001°03'0 0.1
2014-Dec-19 11:33N 50°43' W 001°03'0 0.0
2014-Dec-19 10:33N 50°43' W 001°03'0 0.0
2014-Dec-19 09:33N 50°43' W 001°03'0 0.0
2014-Dec-19 08:33N 50°43' W 001°03'0 0.1
2014-Dec-19 07:33N 50°43' W 001°03'0 0.0
2014-Dec-19 06:33N 50°43' W 001°03'0 0.0
2014-Dec-19 05:33N 50°43' W 001°03'0 0.0
2014-Dec-19 04:30N 50°43' W 001°03'0 0.0
2014-Dec-19 03:27N 50°43' W 001°03'0 0.0
2014-Dec-19 02:27N 50°43' W 001°03'0 0.0
2014-Dec-19 01:33N 50°43' W 001°03'0 0.0
2014-Dec-19 00:33N 50°43' W 001°03'0 0.0
2014-Dec-18 23:33N 50°43' W 001°03'0 0.0
2014-Dec-18 22:33N 50°43' W 001°03'0 0.0
2014-Dec-18 21:33N 50°43' W 001°03'0 0.0
2014-Dec-18 20:33N 50°43' W 001°03'0 0.0
2014-Dec-18 19:33N 50°43' W 001°03'0 0.0
2014-Dec-18 18:33N 50°43' W 001°03'0 0.0
2014-Dec-18 17:33N 50°43' W 001°03'0 0.0
2014-Dec-18 16:33N 50°43' W 001°03'0 0.0
2014-Dec-18 15:33N 50°43' W 001°03'0 0.0
2014-Dec-18 14:33N 50°43' W 001°03'3 2.6
2014-Dec-18 13:33N 50°41' W 001°00'1110.6
2014-Dec-18 12:33N 50°32' W 001°09'56 3.7
2014-Dec-17 21:33N 50°35' E 000°18'10 9.9
2014-Dec-17 20:33N 50°38' E 000°33'10 9.9
2014-Dec-17 19:34N 50°44' E 000°47'11 9.6
2014-Dec-17 18:25N 50°50' E 001°00'1010.4
2014-Dec-17 17:26N 50°57' E 001°13'1011.3
2014-Dec-17 16:33N 51°03' E 001°25'1212.0
2014-Dec-17 15:34N 51°11' E 001°40'1212.0
2014-Dec-17 14:34N 51°21' E 001°50'1111.2
2014-Dec-17 13:33N 51°30' E 002°00'1110.9
2014-Dec-17 12:34N 51°38' E 002°12'1210.2
2014-Dec-17 11:22N 51°47' E 002°25'33 7.7
2014-Dec-17 07:05N 52°02' E 003°13'3 6.2
2014-Dec-17 06:32N 52°03' E 003°18'8 7.5
2014-Dec-17 05:32N 52°03' E 003°31'10 9.9
2014-Dec-17 04:33N 52°03' E 003°46'1010.2
2014-Dec-17 03:34N 51°60' E 004°02'1413.8
2014-Dec-17 02:33N 51°54' E 004°22'8 7.6
2014-Dec-17 01:33N 51°54' E 004°35'2 2.3
2014-Dec-17 00:32N 51°53' E 004°37'0 0.0
2014-Dec-16 23:32N 51°53' E 004°37'0 0.0
2014-Dec-16 22:32N 51°53' E 004°37'0 0.0
2014-Dec-16 21:32N 51°53' E 004°37'0 0.0
2014-Dec-16 20:32N 51°53' E 004°37'0 0.0
2014-Dec-16 19:32N 51°53' E 004°37'0 0.0
2014-Dec-16 18:26N 51°53' E 004°37'0 0.0
2014-Dec-16 17:32N 51°53' E 004°37'0 0.0
2014-Dec-16 16:32N 51°53' E 004°37'0 0.0
2014-Dec-16 15:29N 51°53' E 004°37'0 0.0
2014-Dec-16 14:29N 51°53' E 004°37'0 0.0
2014-Dec-16 13:29N 51°53' E 004°37'0 0.0
2014-Dec-16 12:32N 51°53' E 004°37'1 0.8
2014-Dec-16 11:33N 51°53' E 004°37'4 3.5
2014-Dec-16 10:33N 51°54' E 004°32'2 1.7
2014-Dec-16 09:34N 51°54' E 004°29'5 5.0
2014-Dec-16 08:33N 51°54' E 004°21'8 7.6
2014-Dec-16 07:34N 51°57' E 004°10'7 7.2
2014-Dec-16 06:33N 51°60' E 003°59'7 6.6
2014-Dec-16 05:34N 51°60' E 003°48'3 1.6
2014-Dec-16 03:32N 51°57' E 003°45'0 0.0
2014-Dec-16 02:32N 51°57' E 003°45'0 0.0
2014-Dec-15 23:20N 51°57' E 003°45'0 0.5
2014-Dec-15 22:34N 51°57' E 003°45'1010.5
2014-Dec-15 21:34N 51°55' E 003°28'1211.7
2014-Dec-15 20:33N 51°46' E 003°16'10 9.9
2014-Dec-15 19:31N 51°37' E 003°22'1111.4
2014-Dec-15 18:33N 51°27' E 003°31'9 8.7
2014-Dec-15 17:33N 51°23' E 003°43'5 4.8
2014-Dec-15 16:33N 51°20' E 003°49'4 4.1
2014-Dec-15 15:33N 51°16' E 003°50'0 0.0
2014-Dec-15 14:30N 51°16' E 003°50'0 0.0
2014-Dec-15 13:30N 51°16' E 003°50'0 0.0
2014-Dec-15 12:33N 51°16' E 003°50'0 0.0
2014-Dec-15 11:33N 51°16' E 003°50'0 0.0
2014-Dec-15 10:33N 51°16' E 003°50'0 0.0
2014-Dec-15 09:27N 51°16' E 003°50'0 0.0
2014-Dec-15 08:30N 51°16' E 003°50'0 0.0
2014-Dec-15 07:30N 51°16' E 003°50'0 0.0
2014-Dec-15 06:30N 51°16' E 003°50'0 0.0
2014-Dec-15 05:33N 51°16' E 003°50'0 0.0
2014-Dec-15 04:33N 51°16' E 003°50'0 0.0
2014-Dec-15 03:33N 51°16' E 003°50'0 0.0
2014-Dec-15 02:33N 51°16' E 003°50'0 0.0
2014-Dec-15 01:33N 51°16' E 003°50'0 0.0
2014-Dec-15 00:27N 51°16' E 003°50'0 0.0
2014-Dec-14 23:33N 51°16' E 003°50'0 0.0
2014-Dec-14 22:30N 51°16' E 003°50'0 0.0
2014-Dec-14 21:34N 51°16' E 003°50'0 0.0
2014-Dec-14 20:33N 51°16' E 003°50'1 0.9
2014-Dec-14 19:34N 51°17' E 003°50'5 4.6
2014-Dec-14 18:33N 51°21' E 003°48'1211.7
2014-Dec-14 17:33N 51°25' E 003°30'1413.7
2014-Dec-14 16:30N 51°23' E 003°08'1213.1
2014-Dec-14 15:33N 51°22' E 002°48'6 5.9
2014-Dec-14 14:33N 51°22' E 002°38'5 4.9
2014-Dec-14 13:34N 51°22' E 002°30'6 6.1
2014-Dec-14 12:33N 51°19' E 002°21'10 9.6
2014-Dec-14 11:33N 51°15' E 002°08'1010.0
2014-Dec-14 10:34N 51°09' E 001°55'1110.6
2014-Dec-14 09:34N 51°03' E 001°42'1211.6
2014-Dec-14 08:33N 50°54' E 001°29'28911.1
2014-Dec-13 06:33N 48°41' W 005°07'1211.6
2014-Dec-13 05:33N 48°33' W 005°20'1010.0
2014-Dec-13 04:33N 48°23' W 005°22'1110.9
2014-Dec-13 03:33N 48°13' W 005°18'1110.7
2014-Dec-13 02:33N 48°02' W 005°14'1010.1
2014-Dec-13 01:33N 47°52' W 005°11'9 8.8
2014-Dec-13 00:33N 47°47' W 005°01'1010.1
2014-Dec-12 23:33N 47°44' W 004°46'2010.2
2014-Dec-12 21:33N 47°38' W 004°17'10 9.9
2014-Dec-12 20:33N 47°35' W 004°03'20 9.7
2014-Dec-12 18:30N 47°29' W 003°35'9 9.5
2014-Dec-12 17:33N 47°26' W 003°22'10 9.3
2014-Dec-12 16:30N 47°23' W 003°09'4 1.9
2014-Dec-12 14:31N 47°20' W 003°05'0 0.0
2014-Dec-12 11:19N 47°20' W 003°05'0 0.0
2014-Dec-12 06:16N 47°20' W 003°05'0 0.0
2014-Dec-12 02:08N 47°20' W 003°05'0 0.0
2014-Dec-12 01:26N 47°20' W 003°05'3 3.3
2014-Dec-12 00:33N 47°19' W 003°01'14 9.7
2014-Dec-11 23:04N 47°13' W 002°42'  

Dump ship's entire track history